sensor_id;sensor_type;location;lat;lon;timestamp;P1;durP1;ratioP1;P2;durP2;ratioP2
10479;SDS011;12789;42.610;23.040;2022-07-25T00:01:25;17.17;;;11.80;;
10479;SDS011;12789;42.610;23.040;2022-07-25T00:03:52;16.20;;;11.13;;
10479;SDS011;12789;42.610;23.040;2022-07-25T00:06:21;19.25;;;11.95;;
10479;SDS011;12789;42.610;23.040;2022-07-25T00:08:48;18.58;;;12.43;;
10479;SDS011;12789;42.610;23.040;2022-07-25T00:11:15;14.95;;;11.38;;
10479;SDS011;12789;42.610;23.040;2022-07-25T00:13:42;13.52;;;12.13;;
10479;SDS011;12789;42.610;23.040;2022-07-25T00:16:09;21.35;;;11.30;;
10479;SDS011;12789;42.610;23.040;2022-07-25T00:18:36;14.98;;;11.88;;
10479;SDS011;12789;42.610;23.040;2022-07-25T00:21:03;16.10;;;11.75;;
10479;SDS011;12789;42.610;23.040;2022-07-25T00:23:35;15.77;;;11.75;;
10479;SDS011;12789;42.610;23.040;2022-07-25T00:26:09;20.70;;;11.25;;
10479;SDS011;12789;42.610;23.040;2022-07-25T00:28:49;13.57;;;11.95;;
10479;SDS011;12789;42.610;23.040;2022-07-25T00:31:22;12.77;;;11.50;;
10479;SDS011;12789;42.610;23.040;2022-07-25T00:33:50;16.15;;;12.25;;
10479;SDS011;12789;42.610;23.040;2022-07-25T00:36:18;12.85;;;11.55;;
10479;SDS011;12789;42.610;23.040;2022-07-25T00:38:47;14.48;;;11.68;;
10479;SDS011;12789;42.610;23.040;2022-07-25T00:41:15;14.98;;;11.98;;
10479;SDS011;12789;42.610;23.040;2022-07-25T00:43:45;13.57;;;11.98;;
10479;SDS011;12789;42.610;23.040;2022-07-25T00:46:13;16.40;;;12.10;;
10479;SDS011;12789;42.610;23.040;2022-07-25T00:48:41;13.73;;;12.00;;
10479;SDS011;12789;42.610;23.040;2022-07-25T00:51:09;17.00;;;12.02;;
10479;SDS011;12789;42.610;23.040;2022-07-25T00:53:37;13.85;;;12.40;;
10479;SDS011;12789;42.610;23.040;2022-07-25T00:56:09;13.02;;;11.73;;
10479;SDS011;12789;42.610;23.040;2022-07-25T00:58:40;13.77;;;12.40;;
10479;SDS011;12789;42.610;23.040;2022-07-25T01:01:11;14.73;;;11.93;;
10479;SDS011;12789;42.610;23.040;2022-07-25T01:03:40;13.52;;;11.80;;
10479;SDS011;12789;42.610;23.040;2022-07-25T01:06:08;12.52;;;11.23;;
10479;SDS011;12789;42.610;23.040;2022-07-25T01:08:36;14.30;;;11.98;;
10479;SDS011;12789;42.610;23.040;2022-07-25T01:11:09;16.15;;;11.95;;
10479;SDS011;12789;42.610;23.040;2022-07-25T01:13:37;13.77;;;12.45;;
10479;SDS011;12789;42.610;23.040;2022-07-25T01:16:05;14.95;;;12.07;;
10479;SDS011;12789;42.610;23.040;2022-07-25T01:18:32;15.00;;;11.93;;
10479;SDS011;12789;42.610;23.040;2022-07-25T01:21:01;13.50;;;12.15;;
10479;SDS011;12789;42.610;23.040;2022-07-25T01:23:28;13.93;;;11.68;;
10479;SDS011;12789;42.610;23.040;2022-07-25T01:25:56;13.75;;;12.18;;
10479;SDS011;12789;42.610;23.040;2022-07-25T01:28:23;14.02;;;12.60;;
10479;SDS011;12789;42.610;23.040;2022-07-25T01:30:50;13.95;;;12.43;;
10479;SDS011;12789;42.610;23.040;2022-07-25T01:33:22;19.65;;;12.35;;
10479;SDS011;12789;42.610;23.040;2022-07-25T01:35:50;12.98;;;11.57;;
10479;SDS011;12789;42.610;23.040;2022-07-25T01:38:22;14.75;;;12.80;;
10479;SDS011;12789;42.610;23.040;2022-07-25T01:40:55;15.40;;;12.15;;
10479;SDS011;12789;42.610;23.040;2022-07-25T01:43:23;14.77;;;12.30;;
10479;SDS011;12789;42.610;23.040;2022-07-25T01:45:55;13.85;;;12.38;;
10479;SDS011;12789;42.610;23.040;2022-07-25T01:48:22;16.20;;;12.38;;
10479;SDS011;12789;42.610;23.040;2022-07-25T01:50:49;13.48;;;11.82;;
10479;SDS011;12789;42.610;23.040;2022-07-25T01:53:16;15.27;;;12.40;;
10479;SDS011;12789;42.610;23.040;2022-07-25T01:55:45;14.73;;;13.07;;
10479;SDS011;12789;42.610;23.040;2022-07-25T01:58:14;13.68;;;12.10;;
10479;SDS011;12789;42.610;23.040;2022-07-25T02:00:41;18.88;;;13.10;;
10479;SDS011;12789;42.610;23.040;2022-07-25T02:03:14;18.80;;;12.63;;
10479;SDS011;12789;42.610;23.040;2022-07-25T02:06:04;14.65;;;13.00;;
10479;SDS011;12789;42.610;23.040;2022-07-25T02:09:08;19.98;;;12.20;;
10479;SDS011;12789;42.610;23.040;2022-07-25T02:12:19;16.45;;;12.50;;
10479;SDS011;12789;42.610;23.040;2022-07-25T02:15:11;13.90;;;12.25;;
10479;SDS011;12789;42.610;23.040;2022-07-25T02:18:05;13.25;;;11.85;;
10479;SDS011;12789;42.610;23.040;2022-07-25T02:20:46;16.55;;;11.93;;
10479;SDS011;12789;42.610;23.040;2022-07-25T02:23:37;13.45;;;12.05;;
10479;SDS011;12789;42.610;23.040;2022-07-25T02:26:16;13.27;;;11.88;;
10479;SDS011;12789;42.610;23.040;2022-07-25T02:31:45;13.32;;;11.82;;
10479;SDS011;12789;42.610;23.040;2022-07-25T02:34:31;15.35;;;12.40;;
10479;SDS011;12789;42.610;23.040;2022-07-25T02:37:23;13.10;;;11.75;;
10479;SDS011;12789;42.610;23.040;2022-07-25T02:40:02;13.75;;;12.32;;
10479;SDS011;12789;42.610;23.040;2022-07-25T02:42:42;17.25;;;13.05;;
10479;SDS011;12789;42.610;23.040;2022-07-25T02:45:20;14.43;;;12.10;;
10479;SDS011;12789;42.610;23.040;2022-07-25T02:47:51;13.75;;;12.30;;
10479;SDS011;12789;42.610;23.040;2022-07-25T02:50:23;12.98;;;11.65;;
10479;SDS011;12789;42.610;23.040;2022-07-25T02:53:12;13.48;;;12.13;;
10479;SDS011;12789;42.610;23.040;2022-07-25T02:55:45;16.45;;;11.93;;
10479;SDS011;12789;42.610;23.040;2022-07-25T02:58:21;15.45;;;13.27;;
10479;SDS011;12789;42.610;23.040;2022-07-25T03:01:03;13.10;;;11.80;;
10479;SDS011;12789;42.610;23.040;2022-07-25T03:03:41;16.17;;;13.90;;
10479;SDS011;12789;42.610;23.040;2022-07-25T03:06:17;15.63;;;13.43;;
10479;SDS011;12789;42.610;23.040;2022-07-25T03:09:02;17.88;;;13.48;;
10479;SDS011;12789;42.610;23.040;2022-07-25T03:11:43;19.35;;;14.02;;
10479;SDS011;12789;42.610;23.040;2022-07-25T03:17:22;19.45;;;13.55;;
10479;SDS011;12789;42.610;23.040;2022-07-25T03:19:50;18.40;;;13.73;;
10479;SDS011;12789;42.610;23.040;2022-07-25T03:22:26;15.50;;;13.85;;
10479;SDS011;12789;42.610;23.040;2022-07-25T03:24:56;17.42;;;13.10;;
10479;SDS011;12789;42.610;23.040;2022-07-25T03:27:33;15.38;;;13.68;;
10479;SDS011;12789;42.610;23.040;2022-07-25T03:30:03;17.95;;;14.82;;
10479;SDS011;12789;42.610;23.040;2022-07-25T03:32:33;17.15;;;14.48;;
10479;SDS011;12789;42.610;23.040;2022-07-25T03:35:00;17.20;;;14.48;;
10479;SDS011;12789;42.610;23.040;2022-07-25T03:37:27;17.38;;;14.25;;
10479;SDS011;12789;42.610;23.040;2022-07-25T03:39:54;16.55;;;14.65;;
10479;SDS011;12789;42.610;23.040;2022-07-25T03:42:21;16.63;;;14.63;;
10479;SDS011;12789;42.610;23.040;2022-07-25T03:44:49;17.45;;;14.40;;
10479;SDS011;12789;42.610;23.040;2022-07-25T03:47:16;18.63;;;14.60;;
10479;SDS011;12789;42.610;23.040;2022-07-25T03:49:44;18.92;;;14.75;;
10479;SDS011;12789;42.610;23.040;2022-07-25T03:52:11;18.50;;;15.20;;
10479;SDS011;12789;42.610;23.040;2022-07-25T03:54:38;18.13;;;15.23;;
10479;SDS011;12789;42.610;23.040;2022-07-25T03:57:06;18.05;;;14.98;;
10479;SDS011;12789;42.610;23.040;2022-07-25T03:59:33;22.05;;;15.55;;
10479;SDS011;12789;42.610;23.040;2022-07-25T04:01:59;17.83;;;14.68;;
10479;SDS011;12789;42.610;23.040;2022-07-25T04:04:27;21.08;;;15.23;;
10479;SDS011;12789;42.610;23.040;2022-07-25T04:06:56;23.52;;;15.35;;
10479;SDS011;12789;42.610;23.040;2022-07-25T04:09:23;18.15;;;15.40;;
10479;SDS011;12789;42.610;23.040;2022-07-25T04:11:50;19.33;;;16.00;;
10479;SDS011;12789;42.610;23.040;2022-07-25T04:14:17;19.75;;;16.17;;
10479;SDS011;12789;42.610;23.040;2022-07-25T04:16:44;19.15;;;15.95;;
10479;SDS011;12789;42.610;23.040;2022-07-25T04:19:11;20.63;;;16.42;;
10479;SDS011;12789;42.610;23.040;2022-07-25T04:21:38;30.98;;;18.40;;
10479;SDS011;12789;42.610;23.040;2022-07-25T04:24:07;25.48;;;18.52;;
10479;SDS011;12789;42.610;23.040;2022-07-25T04:26:34;22.58;;;20.10;;
10479;SDS011;12789;42.610;23.040;2022-07-25T04:29:02;26.33;;;20.75;;
10479;SDS011;12789;42.610;23.040;2022-07-25T04:31:28;25.27;;;19.98;;
10479;SDS011;12789;42.610;23.040;2022-07-25T04:33:56;24.23;;;21.30;;
10479;SDS011;12789;42.610;23.040;2022-07-25T04:36:23;27.02;;;21.02;;
10479;SDS011;12789;42.610;23.040;2022-07-25T04:38:51;24.25;;;21.63;;
10479;SDS011;12789;42.610;23.040;2022-07-25T04:41:21;24.88;;;21.30;;
10479;SDS011;12789;42.610;23.040;2022-07-25T04:43:48;28.65;;;21.35;;
10479;SDS011;12789;42.610;23.040;2022-07-25T04:46:18;24.00;;;20.75;;
10479;SDS011;12789;42.610;23.040;2022-07-25T04:48:46;26.27;;;20.95;;
10479;SDS011;12789;42.610;23.040;2022-07-25T04:51:13;35.35;;;21.30;;
10479;SDS011;12789;42.610;23.040;2022-07-25T04:53:40;24.65;;;19.98;;
10479;SDS011;12789;42.610;23.040;2022-07-25T04:56:07;26.88;;;20.63;;
10479;SDS011;12789;42.610;23.040;2022-07-25T04:58:35;30.02;;;19.88;;
10479;SDS011;12789;42.610;23.040;2022-07-25T05:01:02;28.75;;;20.15;;
10479;SDS011;12789;42.610;23.040;2022-07-25T05:03:29;29.20;;;20.50;;
10479;SDS011;12789;42.610;23.040;2022-07-25T05:05:56;29.98;;;20.00;;
10479;SDS011;12789;42.610;23.040;2022-07-25T05:08:22;28.20;;;19.30;;
10479;SDS011;12789;42.610;23.040;2022-07-25T05:10:49;31.40;;;19.48;;
10479;SDS011;12789;42.610;23.040;2022-07-25T05:13:16;27.45;;;18.88;;
10479;SDS011;12789;42.610;23.040;2022-07-25T05:15:45;32.33;;;19.55;;
10479;SDS011;12789;42.610;23.040;2022-07-25T05:18:12;25.10;;;17.70;;
10479;SDS011;12789;42.610;23.040;2022-07-25T05:20:39;17.92;;;15.00;;
10479;SDS011;12789;42.610;23.040;2022-07-25T05:23:06;17.88;;;15.77;;
10479;SDS011;12789;42.610;23.040;2022-07-25T05:25:33;25.45;;;16.98;;
10479;SDS011;12789;42.610;23.040;2022-07-25T05:28:00;18.42;;;16.27;;
10479;SDS011;12789;42.610;23.040;2022-07-25T05:30:27;19.00;;;15.95;;
10479;SDS011;12789;42.610;23.040;2022-07-25T05:32:55;17.85;;;15.88;;
10479;SDS011;12789;42.610;23.040;2022-07-25T05:35:22;21.15;;;15.98;;
10479;SDS011;12789;42.610;23.040;2022-07-25T05:37:49;18.58;;;16.00;;
10479;SDS011;12789;42.610;23.040;2022-07-25T05:40:16;18.40;;;16.60;;
10479;SDS011;12789;42.610;23.040;2022-07-25T05:42:44;16.27;;;14.52;;
10479;SDS011;12789;42.610;23.040;2022-07-25T05:45:11;17.80;;;13.98;;
10479;SDS011;12789;42.610;23.040;2022-07-25T05:47:38;20.98;;;14.75;;
10479;SDS011;12789;42.610;23.040;2022-07-25T05:50:10;14.77;;;12.75;;
10479;SDS011;12789;42.610;23.040;2022-07-25T05:52:37;20.95;;;13.55;;
10479;SDS011;12789;42.610;23.040;2022-07-25T05:55:04;15.60;;;13.38;;
10479;SDS011;12789;42.610;23.040;2022-07-25T05:57:31;12.32;;;11.10;;
10479;SDS011;12789;42.610;23.040;2022-07-25T06:00:00;11.93;;;10.25;;
10479;SDS011;12789;42.610;23.040;2022-07-25T06:02:27;13.65;;;11.75;;
10479;SDS011;12789;42.610;23.040;2022-07-25T06:04:54;12.98;;;11.55;;
10479;SDS011;12789;42.610;23.040;2022-07-25T06:07:23;14.13;;;10.27;;
10479;SDS011;12789;42.610;23.040;2022-07-25T06:09:50;13.20;;;10.60;;
10479;SDS011;12789;42.610;23.040;2022-07-25T06:12:17;14.20;;;11.50;;
10479;SDS011;12789;42.610;23.040;2022-07-25T06:14:44;12.80;;;11.00;;
10479;SDS011;12789;42.610;23.040;2022-07-25T06:17:11;11.40;;;10.20;;
10479;SDS011;12789;42.610;23.040;2022-07-25T06:19:38;15.85;;;10.40;;
10479;SDS011;12789;42.610;23.040;2022-07-25T06:22:05;14.20;;;11.30;;
10479;SDS011;12789;42.610;23.040;2022-07-25T06:24:34;12.75;;;10.18;;
10479;SDS011;12789;42.610;23.040;2022-07-25T06:27:02;11.00;;;9.90;;
10479;SDS011;12789;42.610;23.040;2022-07-25T06:29:29;11.07;;;9.85;;
10479;SDS011;12789;42.610;23.040;2022-07-25T06:31:56;11.02;;;9.50;;
10479;SDS011;12789;42.610;23.040;2022-07-25T06:34:23;17.83;;;8.73;;
10479;SDS011;12789;42.610;23.040;2022-07-25T06:36:50;13.75;;;10.98;;
10479;SDS011;12789;42.610;23.040;2022-07-25T06:39:17;10.73;;;9.65;;
10479;SDS011;12789;42.610;23.040;2022-07-25T06:41:45;10.00;;;9.00;;
10479;SDS011;12789;42.610;23.040;2022-07-25T06:44:12;9.90;;;8.77;;
10479;SDS011;12789;42.610;23.040;2022-07-25T06:46:40;9.68;;;8.68;;
10479;SDS011;12789;42.610;23.040;2022-07-25T06:49:07;10.65;;;8.75;;
10479;SDS011;12789;42.610;23.040;2022-07-25T06:51:34;15.60;;;8.73;;
10479;SDS011;12789;42.610;23.040;2022-07-25T06:54:01;8.82;;;7.93;;
10479;SDS011;12789;42.610;23.040;2022-07-25T06:56:29;8.57;;;7.78;;
10479;SDS011;12789;42.610;23.040;2022-07-25T06:58:58;7.90;;;7.30;;
10479;SDS011;12789;42.610;23.040;2022-07-25T07:01:26;8.05;;;7.22;;
10479;SDS011;12789;42.610;23.040;2022-07-25T07:03:54;8.38;;;7.13;;
10479;SDS011;12789;42.610;23.040;2022-07-25T07:06:21;10.50;;;6.78;;
10479;SDS011;12789;42.610;23.040;2022-07-25T07:08:48;9.43;;;7.25;;
10479;SDS011;12789;42.610;23.040;2022-07-25T07:11:15;7.40;;;6.68;;
10479;SDS011;12789;42.610;23.040;2022-07-25T07:13:42;9.07;;;6.57;;
10479;SDS011;12789;42.610;23.040;2022-07-25T07:16:11;7.45;;;6.40;;
10479;SDS011;12789;42.610;23.040;2022-07-25T07:18:38;8.27;;;6.90;;
10479;SDS011;12789;42.610;23.040;2022-07-25T07:21:05;8.70;;;6.40;;
10479;SDS011;12789;42.610;23.040;2022-07-25T07:23:32;6.28;;;5.78;;
10479;SDS011;12789;42.610;23.040;2022-07-25T07:26:00;6.60;;;6.00;;
10479;SDS011;12789;42.610;23.040;2022-07-25T07:28:26;6.60;;;6.00;;
10479;SDS011;12789;42.610;23.040;2022-07-25T07:30:54;7.00;;;6.40;;
10479;SDS011;12789;42.610;23.040;2022-07-25T07:33:22;6.15;;;5.57;;
10479;SDS011;12789;42.610;23.040;2022-07-25T07:35:49;7.63;;;5.85;;
10479;SDS011;12789;42.610;23.040;2022-07-25T07:38:16;9.90;;;5.82;;
10479;SDS011;12789;42.610;23.040;2022-07-25T07:40:43;6.28;;;5.68;;
10479;SDS011;12789;42.610;23.040;2022-07-25T07:43:10;6.63;;;5.55;;
10479;SDS011;12789;42.610;23.040;2022-07-25T07:45:37;6.05;;;5.55;;
10479;SDS011;12789;42.610;23.040;2022-07-25T07:48:05;6.57;;;5.97;;
10479;SDS011;12789;42.610;23.040;2022-07-25T07:50:34;5.93;;;5.38;;
10479;SDS011;12789;42.610;23.040;2022-07-25T07:53:01;7.15;;;5.80;;
10479;SDS011;12789;42.610;23.040;2022-07-25T07:55:28;6.40;;;5.10;;
10479;SDS011;12789;42.610;23.040;2022-07-25T07:58:10;5.68;;;5.28;;
10479;SDS011;12789;42.610;23.040;2022-07-25T08:00:39;9.00;;;4.97;;
10479;SDS011;12789;42.610;23.040;2022-07-25T08:03:08;5.68;;;5.03;;
10479;SDS011;12789;42.610;23.040;2022-07-25T08:05:38;7.18;;;5.25;;
10479;SDS011;12789;42.610;23.040;2022-07-25T08:08:07;6.38;;;5.35;;
10479;SDS011;12789;42.610;23.040;2022-07-25T08:10:37;6.15;;;5.63;;
10479;SDS011;12789;42.610;23.040;2022-07-25T08:13:11;5.35;;;4.85;;
10479;SDS011;12789;42.610;23.040;2022-07-25T08:15:39;5.63;;;4.93;;
10479;SDS011;12789;42.610;23.040;2022-07-25T08:18:07;5.65;;;5.00;;
10479;SDS011;12789;42.610;23.040;2022-07-25T08:20:35;5.50;;;4.78;;
10479;SDS011;12789;42.610;23.040;2022-07-25T08:23:03;4.97;;;4.57;;
10479;SDS011;12789;42.610;23.040;2022-07-25T08:25:30;6.97;;;5.30;;
10479;SDS011;12789;42.610;23.040;2022-07-25T08:27:57;5.10;;;4.60;;
10479;SDS011;12789;42.610;23.040;2022-07-25T08:30:24;6.13;;;4.60;;
10479;SDS011;12789;42.610;23.040;2022-07-25T08:32:52;5.10;;;4.53;;
10479;SDS011;12789;42.610;23.040;2022-07-25T08:35:22;4.90;;;4.22;;
10479;SDS011;12789;42.610;23.040;2022-07-25T08:37:51;6.85;;;4.78;;
10479;SDS011;12789;42.610;23.040;2022-07-25T08:40:19;4.90;;;4.40;;
10479;SDS011;12789;42.610;23.040;2022-07-25T08:42:49;5.00;;;4.60;;
10479;SDS011;12789;42.610;23.040;2022-07-25T08:45:17;4.55;;;4.22;;
10479;SDS011;12789;42.610;23.040;2022-07-25T08:47:44;6.07;;;4.50;;
10479;SDS011;12789;42.610;23.040;2022-07-25T08:50:15;5.93;;;4.22;;
10479;SDS011;12789;42.610;23.040;2022-07-25T08:52:44;4.20;;;3.85;;
10479;SDS011;12789;42.610;23.040;2022-07-25T08:55:15;7.90;;;4.10;;
10479;SDS011;12789;42.610;23.040;2022-07-25T08:57:44;5.57;;;4.20;;
10479;SDS011;12789;42.610;23.040;2022-07-25T09:00:14;4.72;;;4.10;;
10479;SDS011;12789;42.610;23.040;2022-07-25T09:02:49;4.00;;;3.70;;
10479;SDS011;12789;42.610;23.040;2022-07-25T09:05:17;4.45;;;4.05;;
10479;SDS011;12789;42.610;23.040;2022-07-25T09:07:44;4.50;;;4.10;;
10479;SDS011;12789;42.610;23.040;2022-07-25T09:10:12;4.50;;;3.45;;
10479;SDS011;12789;42.610;23.040;2022-07-25T09:12:50;3.85;;;3.55;;
10479;SDS011;12789;42.610;23.040;2022-07-25T09:15:25;5.45;;;3.65;;
10479;SDS011;12789;42.610;23.040;2022-07-25T09:17:53;4.05;;;3.65;;
10479;SDS011;12789;42.610;23.040;2022-07-25T09:20:21;4.15;;;3.75;;
10479;SDS011;12789;42.610;23.040;2022-07-25T09:22:49;5.50;;;3.90;;
10479;SDS011;12789;42.610;23.040;2022-07-25T09:25:23;3.70;;;3.40;;
10479;SDS011;12789;42.610;23.040;2022-07-25T09:27:51;4.75;;;3.22;;
10479;SDS011;12789;42.610;23.040;2022-07-25T09:30:18;4.13;;;3.30;;
10479;SDS011;12789;42.610;23.040;2022-07-25T09:32:45;3.60;;;3.30;;
10479;SDS011;12789;42.610;23.040;2022-07-25T09:35:13;5.20;;;3.30;;
10479;SDS011;12789;42.610;23.040;2022-07-25T09:37:40;4.53;;;3.28;;
10479;SDS011;12789;42.610;23.040;2022-07-25T09:40:11;4.43;;;3.35;;
10479;SDS011;12789;42.610;23.040;2022-07-25T09:42:41;3.50;;;3.30;;
10479;SDS011;12789;42.610;23.040;2022-07-25T09:45:11;4.18;;;3.20;;
10479;SDS011;12789;42.610;23.040;2022-07-25T09:47:49;3.25;;;3.05;;
10479;SDS011;12789;42.610;23.040;2022-07-25T09:50:18;4.13;;;3.53;;
10479;SDS011;12789;42.610;23.040;2022-07-25T09:52:48;3.83;;;3.53;;
10479;SDS011;12789;42.610;23.040;2022-07-25T09:55:17;3.72;;;3.45;;
10479;SDS011;12789;42.610;23.040;2022-07-25T09:57:47;4.07;;;3.78;;
10479;SDS011;12789;42.610;23.040;2022-07-25T10:00:15;3.70;;;3.50;;
10479;SDS011;12789;42.610;23.040;2022-07-25T10:02:48;5.03;;;3.55;;
10479;SDS011;12789;42.610;23.040;2022-07-25T10:05:19;4.07;;;3.78;;
10479;SDS011;12789;42.610;23.040;2022-07-25T10:07:56;4.93;;;3.42;;
10479;SDS011;12789;42.610;23.040;2022-07-25T10:10:29;4.60;;;3.47;;
10479;SDS011;12789;42.610;23.040;2022-07-25T10:13:02;4.20;;;3.80;;
10479;SDS011;12789;42.610;23.040;2022-07-25T10:15:47;4.07;;;3.70;;
10479;SDS011;12789;42.610;23.040;2022-07-25T10:18:16;4.20;;;3.70;;
10479;SDS011;12789;42.610;23.040;2022-07-25T10:20:45;4.40;;;3.72;;
10479;SDS011;12789;42.610;23.040;2022-07-25T10:23:19;4.60;;;3.80;;
10479;SDS011;12789;42.610;23.040;2022-07-25T10:28:49;4.78;;;4.13;;
10479;SDS011;12789;42.610;23.040;2022-07-25T10:31:19;5.00;;;4.20;;
10479;SDS011;12789;42.610;23.040;2022-07-25T10:33:49;4.35;;;3.88;;
10479;SDS011;12789;42.610;23.040;2022-07-25T10:36:18;4.28;;;3.80;;
10479;SDS011;12789;42.610;23.040;2022-07-25T10:38:46;3.63;;;3.38;;
10479;SDS011;12789;42.610;23.040;2022-07-25T10:41:16;4.13;;;3.75;;
10479;SDS011;12789;42.610;23.040;2022-07-25T10:43:44;3.42;;;3.22;;
10479;SDS011;12789;42.610;23.040;2022-07-25T10:46:18;3.90;;;3.63;;
10479;SDS011;12789;42.610;23.040;2022-07-25T10:48:55;4.13;;;3.35;;
10479;SDS011;12789;42.610;23.040;2022-07-25T10:51:25;3.83;;;3.53;;
10479;SDS011;12789;42.610;23.040;2022-07-25T10:53:53;4.45;;;3.80;;
10479;SDS011;12789;42.610;23.040;2022-07-25T10:56:21;4.10;;;3.70;;
10479;SDS011;12789;42.610;23.040;2022-07-25T10:58:50;7.82;;;3.80;;
10479;SDS011;12789;42.610;23.040;2022-07-25T11:01:22;5.05;;;4.28;;
10479;SDS011;12789;42.610;23.040;2022-07-25T11:03:50;4.60;;;4.20;;
10479;SDS011;12789;42.610;23.040;2022-07-25T11:06:28;5.20;;;3.42;;
10479;SDS011;12789;42.610;23.040;2022-07-25T11:08:57;5.40;;;4.03;;
10479;SDS011;12789;42.610;23.040;2022-07-25T11:11:32;5.63;;;4.15;;
10479;SDS011;12789;42.610;23.040;2022-07-25T11:14:00;4.55;;;3.83;;
10479;SDS011;12789;42.610;23.040;2022-07-25T11:16:29;5.65;;;3.97;;
10479;SDS011;12789;42.610;23.040;2022-07-25T11:18:56;3.88;;;3.58;;
10479;SDS011;12789;42.610;23.040;2022-07-25T11:21:23;4.03;;;3.72;;
10479;SDS011;12789;42.610;23.040;2022-07-25T11:23:50;4.28;;;3.72;;
10479;SDS011;12789;42.610;23.040;2022-07-25T11:26:18;8.27;;;4.07;;
10479;SDS011;12789;42.610;23.040;2022-07-25T11:28:46;3.90;;;3.60;;
10479;SDS011;12789;42.610;23.040;2022-07-25T11:31:15;4.93;;;3.97;;
10479;SDS011;12789;42.610;23.040;2022-07-25T11:33:46;5.03;;;4.00;;
10479;SDS011;12789;42.610;23.040;2022-07-25T11:36:15;4.43;;;3.92;;
10479;SDS011;12789;42.610;23.040;2022-07-25T11:38:45;4.53;;;4.13;;
10479;SDS011;12789;42.610;23.040;2022-07-25T11:41:14;9.02;;;4.88;;
10479;SDS011;12789;42.610;23.040;2022-07-25T11:43:46;6.28;;;4.15;;
10479;SDS011;12789;42.610;23.040;2022-07-25T11:46:14;4.68;;;3.88;;
10479;SDS011;12789;42.610;23.040;2022-07-25T11:48:42;8.05;;;4.03;;
10479;SDS011;12789;42.610;23.040;2022-07-25T11:51:11;4.18;;;3.88;;
10479;SDS011;12789;42.610;23.040;2022-07-25T11:53:41;4.22;;;3.85;;
10479;SDS011;12789;42.610;23.040;2022-07-25T11:56:11;3.67;;;3.40;;
10479;SDS011;12789;42.610;23.040;2022-07-25T11:58:42;4.53;;;3.67;;
10479;SDS011;12789;42.610;23.040;2022-07-25T12:01:15;4.20;;;3.75;;
10479;SDS011;12789;42.610;23.040;2022-07-25T12:03:42;3.70;;;3.35;;
10479;SDS011;12789;42.610;23.040;2022-07-25T12:06:12;5.13;;;3.55;;
10479;SDS011;12789;42.610;23.040;2022-07-25T12:08:40;3.97;;;3.67;;
10479;SDS011;12789;42.610;23.040;2022-07-25T12:11:15;4.07;;;3.58;;
10479;SDS011;12789;42.610;23.040;2022-07-25T12:13:43;4.20;;;3.58;;
10479;SDS011;12789;42.610;23.040;2022-07-25T12:16:10;5.40;;;3.60;;
10479;SDS011;12789;42.610;23.040;2022-07-25T12:18:38;4.63;;;3.80;;
10479;SDS011;12789;42.610;23.040;2022-07-25T12:21:05;4.18;;;3.50;;
10479;SDS011;12789;42.610;23.040;2022-07-25T12:23:34;5.47;;;3.78;;
10479;SDS011;12789;42.610;23.040;2022-07-25T12:26:02;3.65;;;3.35;;
10479;SDS011;12789;42.610;23.040;2022-07-25T12:28:29;4.82;;;3.70;;
10479;SDS011;12789;42.610;23.040;2022-07-25T12:30:56;4.25;;;3.85;;
10479;SDS011;12789;42.610;23.040;2022-07-25T12:33:23;4.55;;;4.15;;
10479;SDS011;12789;42.610;23.040;2022-07-25T12:35:50;4.80;;;4.03;;
10479;SDS011;12789;42.610;23.040;2022-07-25T12:38:17;4.53;;;4.15;;
10479;SDS011;12789;42.610;23.040;2022-07-25T12:40:47;3.97;;;3.67;;
10479;SDS011;12789;42.610;23.040;2022-07-25T12:43:14;3.95;;;3.67;;
10479;SDS011;12789;42.610;23.040;2022-07-25T12:45:41;6.80;;;3.55;;
10479;SDS011;12789;42.610;23.040;2022-07-25T12:48:08;4.22;;;3.83;;
10479;SDS011;12789;42.610;23.040;2022-07-25T12:50:38;4.22;;;3.83;;
10479;SDS011;12789;42.610;23.040;2022-07-25T12:53:05;3.85;;;3.58;;
10479;SDS011;12789;42.610;23.040;2022-07-25T12:55:33;5.07;;;4.22;;
10479;SDS011;12789;42.610;23.040;2022-07-25T12:58:02;5.90;;;3.88;;
10479;SDS011;12789;42.610;23.040;2022-07-25T13:00:28;4.50;;;3.90;;
10479;SDS011;12789;42.610;23.040;2022-07-25T13:02:56;4.47;;;4.07;;
10479;SDS011;12789;42.610;23.040;2022-07-25T13:05:23;3.85;;;3.45;;
10479;SDS011;12789;42.610;23.040;2022-07-25T13:07:50;4.38;;;4.03;;
10479;SDS011;12789;42.610;23.040;2022-07-25T13:10:18;3.88;;;3.38;;
10479;SDS011;12789;42.610;23.040;2022-07-25T13:12:45;6.70;;;4.00;;
10479;SDS011;12789;42.610;23.040;2022-07-25T13:15:14;3.95;;;3.75;;
10479;SDS011;12789;42.610;23.040;2022-07-25T13:17:44;3.65;;;3.38;;
10479;SDS011;12789;42.610;23.040;2022-07-25T13:20:12;5.90;;;3.70;;
10479;SDS011;12789;42.610;23.040;2022-07-25T13:22:39;3.80;;;3.38;;
10479;SDS011;12789;42.610;23.040;2022-07-25T13:25:07;4.10;;;3.80;;
10479;SDS011;12789;42.610;23.040;2022-07-25T13:27:35;4.78;;;3.83;;
10479;SDS011;12789;42.610;23.040;2022-07-25T13:30:03;4.30;;;3.92;;
10479;SDS011;12789;42.610;23.040;2022-07-25T13:32:34;6.78;;;4.30;;
10479;SDS011;12789;42.610;23.040;2022-07-25T13:35:01;5.70;;;3.78;;
10479;SDS011;12789;42.610;23.040;2022-07-25T13:37:28;8.25;;;4.30;;
10479;SDS011;12789;42.610;23.040;2022-07-25T13:39:57;6.47;;;4.45;;
10479;SDS011;12789;42.610;23.040;2022-07-25T13:42:24;3.75;;;3.45;;
10479;SDS011;12789;42.610;23.040;2022-07-25T13:44:51;4.47;;;4.07;;
10479;SDS011;12789;42.610;23.040;2022-07-25T13:47:19;6.13;;;4.07;;
10479;SDS011;12789;42.610;23.040;2022-07-25T13:49:47;9.43;;;5.00;;
10479;SDS011;12789;42.610;23.040;2022-07-25T13:52:14;4.18;;;3.67;;
10479;SDS011;12789;42.610;23.040;2022-07-25T13:54:42;4.03;;;3.72;;
10479;SDS011;12789;42.610;23.040;2022-07-25T13:57:09;3.90;;;3.58;;
10479;SDS011;12789;42.610;23.040;2022-07-25T13:59:36;6.20;;;3.70;;
10479;SDS011;12789;42.610;23.040;2022-07-25T14:02:03;3.60;;;3.40;;
10479;SDS011;12789;42.610;23.040;2022-07-25T14:04:31;4.78;;;3.70;;
10479;SDS011;12789;42.610;23.040;2022-07-25T14:06:59;4.03;;;3.72;;
10479;SDS011;12789;42.610;23.040;2022-07-25T14:09:27;4.75;;;3.65;;
10479;SDS011;12789;42.610;23.040;2022-07-25T14:11:54;6.15;;;3.45;;
10479;SDS011;12789;42.610;23.040;2022-07-25T14:14:21;4.85;;;3.15;;
10479;SDS011;12789;42.610;23.040;2022-07-25T14:16:49;4.45;;;4.00;;
10479;SDS011;12789;42.610;23.040;2022-07-25T14:19:17;3.65;;;3.45;;
10479;SDS011;12789;42.610;23.040;2022-07-25T14:21:44;4.20;;;3.80;;
10479;SDS011;12789;42.610;23.040;2022-07-25T14:24:14;4.10;;;3.55;;
10479;SDS011;12789;42.610;23.040;2022-07-25T14:26:41;3.90;;;3.60;;
10479;SDS011;12789;42.610;23.040;2022-07-25T14:29:08;3.78;;;3.33;;
10479;SDS011;12789;42.610;23.040;2022-07-25T14:31:37;4.13;;;3.45;;
10479;SDS011;12789;42.610;23.040;2022-07-25T14:34:05;4.00;;;3.70;;
10479;SDS011;12789;42.610;23.040;2022-07-25T14:36:33;3.67;;;3.38;;
10479;SDS011;12789;42.610;23.040;2022-07-25T14:39:00;5.05;;;3.47;;
10479;SDS011;12789;42.610;23.040;2022-07-25T14:41:29;3.80;;;3.50;;
10479;SDS011;12789;42.610;23.040;2022-07-25T14:43:56;4.45;;;3.53;;
10479;SDS011;12789;42.610;23.040;2022-07-25T14:46:24;5.70;;;3.75;;